Time;durP1;ratioP1;P1;durP2;ratioP2;P2;SDS_P1;SDS_P2;PMS_P1;PMS_P2;Temp;Humidity;BMP_temperature;BMP_pressure;BME280_temperature;BME280_humidity;BME280_pressure;Samples;Min_cycle;Max_cycle;Signal;HPM_P1;HPM_P2
2022/04/25 00:01:00;;;;;;;1.83;0.80;;;19.90;48.50;;;;;;6149130;28;20042;-68
2022/04/25 00:04:01;;;;;;;1.35;0.80;;;19.90;48.50;;;;;;6147619;28;20215;-68
2022/04/25 00:07:01;;;;;;;1.45;0.63;;;19.90;48.60;;;;;;6148841;28;20031;-68
2022/04/25 00:10:02;;;;;;;0.82;0.63;;;19.90;48.50;;;;;;6163490;28;20739;-68
2022/04/25 00:13:03;;;;;;;1.27;0.73;;;19.90;48.50;;;;;;6148520;28;20075;-68
2022/04/25 00:16:04;;;;;;;0.80;0.55;;;19.90;48.50;;;;;;6148794;28;20019;-68
2022/04/25 00:19:04;;;;;;;1.13;0.80;;;19.90;48.60;;;;;;6148640;28;20029;-68
2022/04/25 00:22:05;;;;;;;0.90;0.75;;;19.90;48.60;;;;;;6148494;28;20035;-68
2022/04/25 00:25:06;;;;;;;1.13;1.00;;;19.90;48.50;;;;;;6163216;28;20022;-68
2022/04/25 00:28:07;;;;;;;1.77;1.00;;;19.90;48.60;;;;;;6148175;28;20035;-68
2022/04/25 00:31:08;;;;;;;1.00;0.70;;;19.90;48.50;;;;;;6147774;29;20477;-69
2022/04/25 00:34:08;;;;;;;1.40;0.70;;;19.90;48.60;;;;;;6148617;29;20023;-68
2022/04/25 00:37:09;;;;;;;1.35;0.77;;;19.80;48.50;;;;;;6148249;29;20494;-68
2022/04/25 00:40:10;;;;;;;1.23;0.90;;;19.90;49.30;;;;;;6148514;29;20154;-68
2022/04/25 00:43:10;;;;;;;1.20;0.80;;;19.80;48.50;;;;;;6146578;29;20035;-68
2022/04/25 00:46:22;;;;;;;2.88;1.00;;;19.80;48.50;;;;;;6138757;28;20026;-68
2022/04/25 00:49:23;;;;;;;1.00;0.70;;;19.80;48.50;;;;;;6148063;28;20516;-68
2022/04/25 00:52:23;;;;;;;2.05;0.60;;;19.90;48.60;;;;;;6147874;28;20031;-68
2022/04/25 00:55:24;;;;;;;1.27;0.73;;;19.90;48.60;;;;;;6147972;28;20031;-68
2022/04/25 00:58:24;;;;;;;2.63;1.00;;;19.90;48.60;;;;;;6147891;28;20035;-68
2022/04/25 01:01:25;;;;;;;0.50;0.50;;;19.80;48.60;;;;;;6149753;28;20033;-68
2022/04/25 01:04:26;;;;;;;1.83;0.80;;;19.80;48.50;;;;;;6147655;28;20027;-68
2022/04/25 01:07:27;;;;;;;0.82;0.65;;;19.90;48.70;;;;;;6147965;28;20032;-69
2022/04/25 01:10:28;;;;;;;1.15;0.65;;;19.80;48.50;;;;;;6149997;28;20034;-68
2022/04/25 01:13:30;;;;;;;1.13;0.95;;;19.80;48.40;;;;;;6147714;28;20163;-68
2022/04/25 01:16:30;;;;;;;1.13;0.70;;;19.80;48.50;;;;;;6147583;28;20058;-68
2022/04/25 01:19:31;;;;;;;1.10;0.70;;;19.80;48.40;;;;;;6147689;28;20019;-68
2022/04/25 01:22:42;;;;;;;0.88;0.70;;;19.80;48.40;;;;;;6147531;28;20035;-68
2022/04/25 01:29:02;;;;;;;1.88;0.80;;;19.80;48.40;;;;;;6147399;28;20039;-68
2022/04/25 01:32:03;;;;;;;1.33;0.77;;;19.80;48.50;;;;;;6147246;29;20105;-68
2022/04/25 01:35:05;;;;;;;1.33;0.80;;;19.80;48.50;;;;;;6147209;29;20030;-68
2022/04/25 01:38:06;;;;;;;1.33;0.70;;;19.80;48.40;;;;;;6147510;29;20486;-69
2022/04/25 01:41:07;;;;;;;1.05;0.68;;;19.80;48.70;;;;;;6147344;29;20038;-68
2022/04/25 01:44:07;;;;;;;1.80;0.77;;;19.80;48.50;;;;;;6138981;29;20631;-68
2022/04/25 01:47:08;;;;;;;0.88;0.80;;;19.80;48.50;;;;;;6123563;29;20036;-68
2022/04/25 01:50:09;;;;;;;0.75;0.60;;;19.80;48.50;;;;;;6123531;29;20051;-68
2022/04/25 01:53:09;;;;;;;1.20;0.82;;;19.80;48.60;;;;;;6123215;29;20024;-68
2022/04/25 01:56:10;;;;;;;0.93;0.80;;;19.80;48.50;;;;;;6122135;29;20035;-68
2022/04/25 01:59:10;;;;;;;1.85;0.80;;;19.80;48.40;;;;;;6123488;29;20024;-68
2022/04/25 02:02:12;;;;;;;0.93;0.73;;;19.80;48.50;;;;;;6122291;29;20469;-68
2022/04/25 02:05:13;;;;;;;0.70;0.60;;;19.80;48.50;;;;;;6122569;29;20027;-68
2022/04/25 02:08:14;;;;;;;1.30;0.70;;;19.80;48.40;;;;;;6122494;29;20035;-68
2022/04/25 02:11:20;;;;;;;0.80;0.70;;;19.80;48.70;;;;;;6121269;29;20031;-68
2022/04/25 02:14:21;;;;;;;0.95;0.63;;;19.80;48.50;;;;;;6122565;29;20024;-68
2022/04/25 02:17:22;;;;;;;2.08;0.77;;;19.80;48.40;;;;;;6123287;29;20443;-68
2022/04/25 02:20:22;;;;;;;1.17;0.80;;;19.80;48.40;;;;;;6125601;29;20043;-68
2022/04/25 02:23:23;;;;;;;1.15;0.70;;;19.80;48.50;;;;;;6127348;29;20016;-69
2022/04/25 02:26:24;;;;;;;1.10;0.73;;;19.80;48.50;;;;;;6127220;29;20036;-68
2022/04/25 02:29:25;;;;;;;1.15;0.70;;;19.80;48.50;;;;;;6133079;28;20023;-68
2022/04/25 02:32:27;;;;;;;1.25;1.02;;;19.80;48.50;;;;;;6175051;28;20049;-69
2022/04/25 02:35:28;;;;;;;1.23;0.70;;;19.80;48.50;;;;;;6174789;28;20023;-69
2022/04/25 02:38:28;;;;;;;1.20;0.80;;;19.80;48.40;;;;;;6174733;28;20027;-69
2022/04/25 02:41:29;;;;;;;0.60;0.60;;;19.80;48.40;;;;;;6174640;28;20030;-68
2022/04/25 02:44:30;;;;;;;1.08;0.90;;;19.80;48.40;;;;;;6152448;28;20560;-68
2022/04/25 02:47:30;;;;;;;1.67;0.98;;;19.80;48.40;;;;;;6126914;29;20131;-68
2022/04/25 02:50:31;;;;;;;0.70;0.60;;;19.80;48.40;;;;;;6126873;29;20036;-68
2022/04/25 02:53:32;;;;;;;1.08;0.80;;;19.80;48.50;;;;;;6125366;29;20495;-68
2022/04/25 02:56:33;;;;;;;1.05;0.80;;;19.80;48.40;;;;;;6126719;29;20020;-69
2022/04/25 02:59:33;;;;;;;0.85;0.68;;;19.80;48.50;;;;;;6126649;29;20023;-68
2022/04/25 03:02:34;;;;;;;0.80;0.60;;;19.80;48.40;;;;;;6126514;29;20048;-68
2022/04/25 03:05:34;;;;;;;0.90;0.65;;;19.80;48.40;;;;;;6126471;29;20119;-68
2022/04/25 03:08:36;;;;;;;0.80;0.73;;;19.80;48.40;;;;;;6126445;29;20059;-68
2022/04/25 03:11:36;;;;;;;1.10;0.93;;;19.80;48.50;;;;;;6126431;29;20036;-68
2022/04/25 03:14:37;;;;;;;0.98;0.85;;;19.80;48.40;;;;;;6126292;29;20118;-69
2022/04/25 03:17:38;;;;;;;3.60;1.45;;;19.80;49.10;;;;;;6126228;29;20054;-68
2022/04/25 03:20:42;;;;;;;1.13;0.90;;;19.80;48.40;;;;;;6126384;29;20020;-68
2022/04/25 03:23:42;;;;;;;1.00;0.88;;;19.80;48.40;;;;;;6126355;29;20217;-68
2022/04/25 03:26:42;;;;;;;0.90;0.80;;;19.80;48.50;;;;;;6126090;29;20046;-68
2022/04/25 03:29:43;;;;;;;0.90;0.75;;;19.80;48.50;;;;;;6130410;28;20125;-68
2022/04/25 03:32:45;;;;;;;1.10;1.00;;;19.80;48.40;;;;;;6149766;29;20032;-68
2022/04/25 03:35:47;;;;;;;1.20;0.80;;;19.80;48.40;;;;;;6149241;29;20110;-68
2022/04/25 03:38:47;;;;;;;1.63;0.82;;;19.80;48.50;;;;;;6149620;29;20039;-68
2022/04/25 03:41:48;;;;;;;0.95;0.90;;;19.80;48.40;;;;;;6149268;29;20016;-68
2022/04/25 03:44:49;;;;;;;1.15;0.93;;;19.80;48.40;;;;;;6135822;29;20114;-68
2022/04/25 03:47:50;;;;;;;1.10;0.80;;;19.80;48.40;;;;;;6125298;29;20167;-68
2022/04/25 03:50:50;;;;;;;1.45;0.88;;;19.80;48.50;;;;;;6125539;29;20031;-68
2022/04/25 03:53:51;;;;;;;1.30;0.90;;;19.80;48.40;;;;;;6125397;29;20527;-68
2022/04/25 04:00:11;;;;;;;1.27;0.93;;;19.80;48.40;;;;;;6125247;29;20083;-68
2022/04/25 04:03:14;;;;;;;1.50;0.90;;;19.80;48.40;;;;;;6124958;29;20063;-68
2022/04/25 04:06:15;;;;;;;1.65;1.10;;;19.80;48.40;;;;;;6125065;29;20091;-68
2022/04/25 04:12:35;;;;;;;2.75;1.17;;;19.80;49.10;;;;;;6148835;28;20043;-68
2022/04/25 04:15:36;;;;;;;1.35;1.00;;;19.80;48.30;;;;;;6148050;28;20030;-68
2022/04/25 04:18:39;;;;;;;1.30;0.88;;;19.80;48.30;;;;;;6147730;28;20035;-68
2022/04/25 04:21:40;;;;;;;1.83;0.90;;;19.80;48.30;;;;;;6150692;28;20690;-68
2022/04/25 04:24:40;;;;;;;1.10;1.00;;;19.80;48.20;;;;;;6148645;28;20019;-68
2022/04/25 04:27:43;;;;;;;1.48;0.98;;;19.80;48.20;;;;;;6148274;28;20098;-68
2022/04/25 04:30:44;;;;;;;1.30;0.90;;;19.80;48.20;;;;;;6147938;28;20134;-68
2022/04/25 04:33:45;;;;;;;0.70;0.70;;;19.80;48.10;;;;;;6148401;29;20063;-68
2022/04/25 04:36:45;;;;;;;1.30;1.10;;;19.80;48.10;;;;;;6148047;29;20034;-68
2022/04/25 04:39:46;;;;;;;0.77;0.70;;;19.80;48.10;;;;;;6148104;28;20722;-68
2022/04/25 04:42:46;;;;;;;1.23;0.80;;;19.80;48.20;;;;;;6147959;29;20117;-68
2022/04/25 04:45:47;;;;;;;1.25;0.90;;;19.80;48.00;;;;;;6126781;29;20040;-68
2022/04/25 04:48:47;;;;;;;1.40;0.90;;;19.90;48.20;;;;;;6124169;29;20145;-68
2022/04/25 04:51:47;;;;;;;1.33;0.90;;;19.90;48.20;;;;;;6124096;29;20502;-68
2022/04/25 04:54:48;;;;;;;1.45;0.95;;;19.90;48.10;;;;;;6124208;29;20035;-68
2022/04/25 04:57:48;;;;;;;1.15;0.85;;;19.90;48.10;;;;;;6124113;29;20035;-68
2022/04/25 05:00:49;;;;;;;1.40;0.90;;;19.90;48.10;;;;;;6123543;28;20063;-68
2022/04/25 05:03:50;;;;;;;1.20;0.90;;;19.90;48.10;;;;;;6123992;29;20078;-69
2022/04/25 05:06:50;;;;;;;1.38;1.05;;;19.90;48.00;;;;;;6123687;29;20122;-68
2022/04/25 05:09:52;;;;;;;2.20;1.00;;;19.90;48.10;;;;;;6124075;29;20111;-68
2022/04/25 05:12:57;;;;;;;2.30;0.85;;;19.90;48.10;;;;;;6123921;29;20107;-68
2022/04/25 05:15:58;;;;;;;1.08;0.98;;;19.90;48.00;;;;;;6123903;29;20479;-68
2022/04/25 05:18:59;;;;;;;1.88;1.00;;;19.90;48.00;;;;;;6123751;29;20079;-69
2022/04/25 05:21:59;;;;;;;1.73;1.00;;;19.90;48.00;;;;;;6123905;29;20050;-68
2022/04/25 05:25:01;;;;;;;1.50;1.05;;;19.90;48.00;;;;;;6123831;29;20082;-68
2022/04/25 05:28:03;;;;;;;1.38;1.02;;;19.90;48.00;;;;;;6123826;29;20036;-68
2022/04/25 05:31:03;;;;;;;1.48;1.05;;;19.90;48.00;;;;;;6139869;29;20122;-68
2022/04/25 05:34:04;;;;;;;1.20;1.00;;;19.90;48.00;;;;;;6147466;29;20022;-68
2022/04/25 05:37:04;;;;;;;1.42;1.10;;;19.90;47.90;;;;;;6147442;29;20031;-68
2022/04/25 05:40:07;;;;;;;1.92;1.00;;;19.90;47.80;;;;;;6147427;29;20038;-68
2022/04/25 05:43:08;;;;;;;1.20;0.93;;;19.90;48.50;;;;;;6146962;29;20118;-68
2022/04/25 05:46:09;;;;;;;0.90;0.80;;;19.90;47.80;;;;;;6123646;29;20024;-68
2022/04/25 05:52:28;;;;;;;1.15;0.90;;;19.90;47.90;;;;;;6124048;29;20039;-68
2022/04/25 05:55:29;;;;;;;1.73;0.80;;;19.90;47.60;;;;;;6128053;29;20088;-68
2022/04/25 05:58:30;;;;;;;0.90;0.80;;;19.90;47.60;;;;;;6127656;29;20028;-68
2022/04/25 06:01:30;;;;;;;1.73;1.08;;;19.90;47.70;;;;;;6144036;28;20032;-68
2022/04/25 06:04:31;;;;;;;1.58;1.13;;;19.90;47.60;;;;;;6153617;28;20479;-68
2022/04/25 06:07:33;;;;;;;1.25;1.00;;;19.90;47.60;;;;;;6153585;28;20110;-69
2022/04/25 06:10:34;;;;;;;1.45;1.13;;;19.90;48.30;;;;;;6153589;28;20031;-68
2022/04/25 06:13:34;;;;;;;1.27;1.00;;;19.90;47.60;;;;;;6153807;28;20390;-68
2022/04/25 06:16:35;;;;;;;1.50;1.17;;;19.90;47.70;;;;;;6153416;28;20026;-69
2022/04/25 06:19:35;;;;;;;2.03;1.10;;;19.90;47.80;;;;;;6153542;28;20736;-68
2022/04/25 06:22:38;;;;;;;1.63;1.15;;;19.90;47.70;;;;;;6153355;28;20398;-68
2022/04/25 06:25:38;;;;;;;1.05;0.90;;;19.90;47.70;;;;;;6153574;28;20123;-69
2022/04/25 06:28:39;;;;;;;0.93;0.80;;;19.90;47.70;;;;;;6153217;28;20027;-69
2022/04/25 06:31:39;;;;;;;1.73;1.10;;;19.90;47.80;;;;;;6151616;29;20126;-69
2022/04/25 06:34:41;;;;;;;0.90;0.80;;;19.90;47.80;;;;;;6152902;29;20156;-68
2022/04/25 06:37:41;;;;;;;1.55;1.10;;;19.90;47.80;;;;;;6153449;29;20098;-68
2022/04/25 06:40:42;;;;;;;1.25;1.10;;;19.90;47.80;;;;;;6152978;29;20051;-68
2022/04/25 06:43:43;;;;;;;1.95;0.93;;;19.90;47.70;;;;;;6148016;29;20082;-68
2022/04/25 06:46:43;;;;;;;1.92;1.10;;;19.90;47.80;;;;;;6128924;29;20364;-68
2022/04/25 06:49:44;;;;;;;2.08;1.33;;;19.90;47.80;;;;;;6129070;29;20032;-68
2022/04/25 06:52:45;;;;;;;1.55;1.00;;;19.90;47.80;;;;;;6128702;29;20038;-68
2022/04/25 06:55:45;;;;;;;1.33;0.90;;;19.90;47.80;;;;;;6128955;29;20557;-68
2022/04/25 06:58:46;;;;;;;1.27;0.90;;;19.90;47.80;;;;;;6128843;29;20024;-68
2022/04/25 07:01:47;;;;;;;0.93;0.85;;;19.90;47.80;;;;;;6130351;29;20151;-68
2022/04/25 07:04:48;;;;;;;1.45;1.00;;;19.90;47.80;;;;;;6152540;28;20061;-68
2022/04/25 07:07:48;;;;;;;1.35;1.15;;;19.90;47.70;;;;;;6152246;28;20039;-68
2022/04/25 07:10:49;;;;;;;1.50;0.90;;;19.90;47.80;;;;;;6152257;28;20036;-69
2022/04/25 07:13:50;;;;;;;1.15;1.05;;;19.90;47.80;;;;;;6152484;28;20390;-69
2022/04/25 07:16:54;;;;;;;1.42;1.00;;;19.90;47.80;;;;;;6150660;28;20035;-68
2022/04/25 07:19:55;;;;;;;1.58;1.15;;;19.90;47.80;;;;;;6140360;28;20026;-68
2022/04/25 07:29:34;;;;;;;2.25;1.00;;;19.90;47.70;;;;;;6151018;28;20034;-68
2022/04/25 07:32:39;;;;;;;1.17;1.00;;;19.90;47.70;;;;;;6148443;28;20430;-68
2022/04/25 07:35:40;;;;;;;1.52;0.90;;;19.90;47.80;;;;;;6121367;28;20475;-69
2022/04/25 07:38:41;;;;;;;1.50;1.05;;;19.90;47.80;;;;;;6138008;28;20026;-68
2022/04/25 07:41:44;;;;;;;1.75;1.10;;;20.00;48.20;;;;;;6150851;28;20035;-69
2022/04/25 07:44:46;;;;;;;1.75;1.17;;;20.00;47.80;;;;;;6150641;28;20020;-69
2022/04/25 07:47:47;;;;;;;1.80;1.02;;;20.00;47.10;;;;;;6148367;28;20107;-69
2022/04/25 07:50:48;;;;;;;1.40;0.85;;;20.10;46.80;;;;;;6148036;28;20031;-68
2022/04/25 07:53:49;;;;;;;1.95;1.05;;;20.10;46.60;;;;;;6138790;28;20479;-68
2022/04/25 07:56:49;;;;;;;3.63;1.10;;;20.10;46.60;;;;;;6145636;28;20542;-68
2022/04/25 07:59:50;;;;;;;2.70;0.98;;;20.20;46.70;;;;;;6126113;28;20032;-68
2022/04/25 08:02:50;;;;;;;2.00;0.95;;;20.20;46.50;;;;;;6134992;28;20514;-69
2022/04/25 08:05:51;;;;;;;1.30;0.90;;;20.20;46.50;;;;;;6149413;28;20031;-68
2022/04/25 08:08:54;;;;;;;1.23;0.90;;;20.10;46.90;;;;;;6149278;28;20063;-68
2022/04/25 08:18:33;;;;;;;2.42;0.90;;;20.10;47.00;;;;;;6149182;28;20404;-68
2022/04/25 08:21:33;;;;;;;1.77;1.00;;;20.10;47.00;;;;;;6149428;28;20037;-69
2022/04/25 08:24:36;;;;;;;1.73;1.30;;;20.10;47.10;;;;;;6147609;28;20031;-68
2022/04/25 08:27:36;;;;;;;2.38;0.90;;;20.10;47.00;;;;;;6148733;28;20019;-68
2022/04/25 08:30:37;;;;;;;1.20;0.90;;;20.10;47.00;;;;;;6148958;28;20390;-69
2022/04/25 08:33:38;;;;;;;1.70;0.90;;;20.10;47.00;;;;;;6148977;29;20126;-68
2022/04/25 08:36:38;;;;;;;1.90;1.00;;;20.10;47.00;;;;;;6148985;29;20059;-68
2022/04/25 08:39:39;;;;;;;1.50;0.90;;;20.10;47.00;;;;;;6148461;29;20019;-68
2022/04/25 08:42:39;;;;;;;1.63;0.77;;;20.10;47.00;;;;;;6149026;29;20066;-68
2022/04/25 08:45:41;;;;;;;1.92;0.90;;;20.10;47.00;;;;;;6128464;29;20532;-68
2022/04/25 08:48:43;;;;;;;1.48;0.95;;;20.10;47.00;;;;;;6142980;28;20098;-68
2022/04/25 08:51:46;;;;;;;3.08;1.20;;;20.10;47.00;;;;;;6148547;28;20138;-68
2022/04/25 08:54:49;;;;;;;0.75;0.70;;;20.10;47.00;;;;;;6148616;28;20421;-68
2022/04/25 08:57:51;;;;;;;1.30;1.00;;;20.10;46.90;;;;;;6148662;28;20126;-68
2022/04/25 09:00:53;;;;;;;1.45;1.00;;;20.10;46.90;;;;;;6163378;28;20031;-68
2022/04/25 09:03:53;;;;;;;1.40;0.90;;;20.10;47.00;;;;;;6148504;28;20047;-70
2022/04/25 09:06:55;;;;;;;0.90;0.82;;;20.10;46.90;;;;;;6148358;28;20082;-68
2022/04/25 09:09:55;;;;;;;1.40;0.80;;;20.10;47.00;;;;;;6147998;28;20389;-68
2022/04/25 09:12:58;;;;;;;1.77;1.00;;;20.10;47.00;;;;;;6147709;28;20051;-70
2022/04/25 09:15:59;;;;;;;1.60;1.10;;;20.10;47.00;;;;;;6148669;28;20058;-69
2022/04/25 09:19:00;;;;;;;0.98;0.75;;;20.10;47.00;;;;;;6147962;28;20024;-68
2022/04/25 09:22:01;;;;;;;0.93;0.70;;;20.10;47.00;;;;;;6147893;28;20031;-73
2022/04/25 09:25:07;;;;;;;1.50;1.05;;;20.10;47.30;;;;;;6147834;28;20031;-69
2022/04/25 09:28:12;;;;;;;1.40;0.90;;;20.20;47.90;;;;;;6156337;28;20031;-70
2022/04/25 09:31:17;;;;;;;1.70;0.88;;;20.30;47.50;;;;;;6158835;28;20062;-69
2022/04/25 09:34:59;;;;;;;1.10;0.98;;;20.30;47.20;;;;;;6153138;28;20031;-68
2022/04/25 09:37:43;;;;;;;2.95;0.90;;;20.30;47.40;;;;;;6152858;29;20031;-69
2022/04/25 09:40:44;;;;;;;1.70;0.88;;;20.30;47.40;;;;;;6153163;29;20027;-68
2022/04/25 09:43:44;;;;;;;5.50;0.70;;;20.20;47.30;;;;;;6147850;29;20016;-68
2022/04/25 09:46:48;;;;;;;1.27;0.90;;;20.20;47.10;;;;;;6133634;29;20031;-68
2022/04/25 09:49:58;;;;;;;5.15;1.45;;;20.20;47.10;;;;;;6152549;28;20082;-68
2022/04/25 09:53:02;;;;;;;4.32;1.33;;;20.20;45.80;;;;;;6152811;28;20043;-68
2022/04/25 09:56:10;;;;;;;4.72;1.40;;;20.20;46.20;;;;;;6152583;28;20449;-68
2022/04/25 09:59:11;;;;;;;6.80;1.98;;;20.10;45.90;;;;;;6152013;28;20027;-68
2022/04/25 10:02:11;;;;;;;7.90;1.73;;;20.10;45.20;;;;;;6152357;28;20525;-68
2022/04/25 10:05:15;;;;;;;5.90;1.60;;;20.10;45.40;;;;;;6152234;28;20097;-69
2022/04/25 10:08:18;;;;;;;7.20;1.67;;;20.10;45.00;;;;;;6151878;28;20571;-68
2022/04/25 10:11:20;;;;;;;5.45;1.67;;;20.10;44.60;;;;;;6152628;28;20031;-68
2022/04/25 10:14:21;;;;;;;5.20;1.83;;;20.10;44.00;;;;;;6150739;28;20039;-68
2022/04/25 10:17:23;;;;;;;4.45;1.85;;;20.10;43.40;;;;;;6158463;28;20110;-68
2022/04/25 10:20:23;;;;;;;4.63;1.70;;;20.10;43.50;;;;;;6159416;28;20035;-68
2022/04/25 10:23:25;;;;;;;5.00;2.00;;;20.10;43.60;;;;;;6151581;28;20395;-68
2022/04/25 10:26:26;;;;;;;8.45;2.05;;;20.10;44.10;;;;;;6152038;28;20023;-68
2022/04/25 10:29:34;;;;;;;6.28;2.20;;;20.00;43.60;;;;;;6151469;28;20024;-68
2022/04/25 10:32:34;;;;;;;3.67;1.80;;;20.10;44.00;;;;;;6151705;29;20122;-68
2022/04/25 10:35:36;;;;;;;3.63;1.63;;;20.10;44.20;;;;;;6151771;29;20027;-68
2022/04/25 10:38:48;;;;;;;4.85;2.05;;;20.10;44.50;;;;;;6150597;28;20027;-68
2022/04/25 10:45:14;;;;;;;5.55;2.05;;;20.10;44.60;;;;;;6151247;28;20031;-68
2022/04/25 10:48:14;;;;;;;3.70;1.40;;;20.10;44.90;;;;;;6150436;28;20030;-68
2022/04/25 10:51:18;;;;;;;2.50;1.50;;;20.10;45.10;;;;;;6151234;29;20038;-68
2022/04/25 10:54:23;;;;;;;5.72;1.40;;;20.10;45.30;;;;;;6151291;29;20103;-68
2022/04/25 10:57:24;;;;;;;4.15;1.63;;;20.10;45.40;;;;;;6150518;29;20038;-68
2022/04/25 11:00:45;;;;;;;3.83;1.77;;;20.10;45.60;;;;;;6150750;28;20379;-69
2022/04/25 11:04:15;;;;;;;4.90;1.52;;;20.10;45.60;;;;;;6150744;29;20126;-68
2022/04/25 11:07:24;;;;;;;4.20;1.73;;;20.10;45.80;;;;;;6148398;28;20511;-68
2022/04/25 11:10:44;;;;;;;5.65;1.60;;;20.10;45.80;;;;;;6150502;28;20027;-68
2022/04/25 11:13:51;;;;;;;1.88;1.30;;;20.00;45.80;;;;;;6150835;28;20074;-68
2022/04/25 11:17:15;;;;;;;1.83;1.20;;;20.00;45.90;;;;;;6150633;28;20395;-69
2022/04/25 11:20:54;;;;;;;3.00;1.50;;;20.00;46.00;;;;;;6149986;28;20027;-68
2022/04/25 11:23:55;;;;;;;3.95;1.50;;;20.00;45.90;;;;;;6149522;28;20034;-68
2022/04/25 11:26:58;;;;;;;3.95;1.10;;;20.00;46.40;;;;;;6151032;29;20446;-68
2022/04/25 11:30:16;;;;;;;3.22;1.27;;;20.10;46.00;;;;;;6148997;28;20023;-68
2022/04/25 11:33:16;;;;;;;2.30;1.20;;;20.10;46.00;;;;;;6172928;28;20405;-68
2022/04/25 11:36:21;;;;;;;1.58;1.08;;;20.10;46.30;;;;;;6174120;28;20038;-68
2022/04/25 11:42:41;;;;;;;2.58;1.10;;;20.10;46.10;;;;;;6160088;28;20035;-70
2022/04/25 11:45:41;;;;;;;8.23;1.33;;;20.10;46.10;;;;;;6129556;28;20066;-68
2022/04/25 11:48:42;;;;;;;1.42;1.08;;;20.10;46.60;;;;;;6126036;29;20406;-68
2022/04/25 11:51:50;;;;;;;2.67;1.08;;;20.10;46.50;;;;;;6125022;29;20028;-68
2022/04/25 11:54:50;;;;;;;6.55;1.50;;;20.10;46.20;;;;;;6126279;29;20305;-69
2022/04/25 11:57:51;;;;;;;3.97;1.25;;;20.10;46.10;;;;;;6125552;29;20053;-68
2022/04/25 12:00:51;;;;;;;5.38;1.38;;;20.20;46.20;;;;;;6146118;28;20027;-68
2022/04/25 12:04:11;;;;;;;2.03;1.13;;;20.10;46.10;;;;;;6149260;28;20045;-68
2022/04/25 12:07:12;;;;;;;1.95;1.00;;;20.10;46.10;;;;;;6149135;28;20027;-68
2022/04/25 12:16:51;;;;;;;1.73;1.00;;;20.20;46.30;;;;;;6149471;28;20144;-68
2022/04/25 12:19:59;;;;;;;1.15;0.90;;;20.10;46.20;;;;;;6151230;28;20536;-68
2022/04/25 12:23:00;;;;;;;8.05;1.20;;;20.10;46.20;;;;;;6148841;28;20015;-68
2022/04/25 12:26:06;;;;;;;2.05;1.00;;;20.20;46.40;;;;;;6149504;28;20494;-68
2022/04/25 12:29:09;;;;;;;2.97;0.90;;;20.10;47.00;;;;;;6148121;28;20363;-68
2022/04/25 12:32:12;;;;;;;1.95;1.08;;;20.10;46.40;;;;;;6149037;29;20031;-68
2022/04/25 12:35:19;;;;;;;1.75;1.10;;;20.10;46.40;;;;;;6163349;28;20109;-68
2022/04/25 12:38:35;;;;;;;1.90;1.05;;;20.10;47.00;;;;;;6155036;28;20074;-68
2022/04/25 12:41:38;;;;;;;1.80;0.80;;;20.10;46.40;;;;;;6118715;28;20467;-68
2022/04/25 12:44:38;;;;;;;2.55;1.00;;;20.10;46.50;;;;;;6134883;28;20418;-68
2022/04/25 12:47:45;;;;;;;4.25;0.90;;;20.20;46.60;;;;;;6167662;28;20042;-69
2022/04/25 12:50:46;;;;;;;2.38;1.17;;;20.20;46.70;;;;;;6171663;28;20027;-69
2022/04/25 12:53:46;;;;;;;2.58;1.17;;;20.20;46.70;;;;;;6171388;28;20039;-69
2022/04/25 12:56:48;;;;;;;2.50;1.27;;;20.20;46.40;;;;;;6172062;28;20023;-69
2022/04/25 12:59:54;;;;;;;2.38;1.30;;;20.10;45.70;;;;;;6170960;28;20022;-69
2022/04/25 13:03:02;;;;;;;9.43;2.10;;;20.10;45.30;;;;;;6171609;28;20061;-69
2022/04/25 13:06:02;;;;;;;3.95;1.80;;;20.10;44.60;;;;;;6168341;28;20331;-69
2022/04/25 13:09:05;;;;;;;8.48;1.73;;;20.10;44.30;;;;;;6147815;29;20034;-69
2022/04/25 13:12:17;;;;;;;9.10;1.92;;;20.10;44.60;;;;;;6141072;28;20023;-69
2022/04/25 13:15:19;;;;;;;6.43;1.67;;;20.10;45.10;;;;;;6129914;28;20049;-69
2022/04/25 13:18:20;;;;;;;6.35;2.05;;;20.10;44.50;;;;;;6140866;28;20035;-69
2022/04/25 13:21:20;;;;;;;8.05;2.00;;;20.10;43.90;;;;;;6147398;28;20378;-68
2022/04/25 13:24:21;;;;;;;4.10;1.80;;;20.10;44.10;;;;;;6145681;28;20058;-68
2022/04/25 13:27:22;;;;;;;5.28;1.83;;;20.10;43.70;;;;;;6150493;28;20082;-69
2022/04/25 13:30:23;;;;;;;5.78;2.08;;;20.10;43.40;;;;;;6159959;28;20027;-69
2022/04/25 13:33:23;;;;;;;10.57;2.22;;;20.10;43.60;;;;;;6147480;29;20054;-69
2022/04/25 13:36:24;;;;;;;9.73;2.78;;;20.20;43.90;;;;;;6147426;29;20406;-69
2022/04/25 13:39:25;;;;;;;7.55;2.22;;;20.10;43.10;;;;;;6147168;29;20047;-69
2022/04/25 13:42:26;;;;;;;8.50;2.28;;;20.10;43.20;;;;;;6148084;28;20038;-69
2022/04/25 13:45:26;;;;;;;9.95;2.30;;;20.10;43.50;;;;;;6147157;28;20023;-69
2022/04/25 13:48:28;;;;;;;10.32;2.20;;;20.20;43.60;;;;;;6146702;28;20036;-70
2022/04/25 13:51:28;;;;;;;4.20;1.80;;;20.20;43.80;;;;;;6147337;28;20063;-70
2022/04/25 13:54:29;;;;;;;10.52;2.20;;;20.20;44.30;;;;;;6147081;29;20024;-69
2022/04/25 13:57:30;;;;;;;5.13;1.85;;;20.20;44.00;;;;;;6147228;28;20082;-69
2022/04/25 14:00:31;;;;;;;7.97;1.90;;;20.20;43.90;;;;;;6147232;28;20462;-70
2022/04/25 14:03:32;;;;;;;4.05;2.17;;;20.20;43.90;;;;;;6147184;28;20059;-69
2022/04/25 14:06:32;;;;;;;5.13;2.15;;;20.20;43.20;;;;;;6146972;28;20019;-69
2022/04/25 14:09:33;;;;;;;5.20;2.20;;;20.10;43.10;;;;;;6145343;28;20127;-70
2022/04/25 14:12:33;;;;;;;5.40;2.10;;;20.10;42.50;;;;;;6154383;28;20515;-69
2022/04/25 14:15:37;;;;;;;5.43;1.80;;;20.10;42.30;;;;;;6153788;28;20082;-69
2022/04/25 14:18:37;;;;;;;7.70;2.10;;;20.10;42.50;;;;;;6151386;28;20094;-69
2022/04/25 14:21:38;;;;;;;5.30;2.17;;;20.10;42.40;;;;;;6150123;28;20474;-69
2022/04/25 14:24:38;;;;;;;5.70;1.83;;;20.10;42.50;;;;;;6137891;28;20031;-69
2022/04/25 14:27:39;;;;;;;3.97;2.13;;;20.10;42.40;;;;;;6127656;29;20020;-69
2022/04/25 14:30:41;;;;;;;6.55;2.38;;;20.10;42.20;;;;;;6154376;28;20027;-69
2022/04/25 14:33:42;;;;;;;5.57;2.13;;;20.10;42.00;;;;;;6142270;28;20044;-69
2022/04/25 14:36:42;;;;;;;8.75;2.35;;;20.10;42.40;;;;;;6127737;28;20189;-69
2022/04/25 14:39:43;;;;;;;5.25;1.92;;;20.00;42.50;;;;;;6126954;29;20517;-69
2022/04/25 14:42:44;;;;;;;6.60;2.33;;;20.00;42.60;;;;;;6127603;29;20020;-68
2022/04/25 14:45:44;;;;;;;6.18;2.13;;;20.00;42.50;;;;;;6126889;29;20107;-69
2022/04/25 14:48:45;;;;;;;5.90;2.17;;;20.00;42.50;;;;;;6127096;29;20054;-69
2022/04/25 14:55:05;;;;;;;7.40;1.92;;;20.00;42.80;;;;;;6126696;29;20063;-68
2022/04/25 14:58:05;;;;;;;5.53;2.15;;;20.00;42.50;;;;;;6126663;29;20110;-69
2022/04/25 15:01:06;;;;;;;10.13;1.88;;;20.00;42.90;;;;;;6126637;29;20042;-69
2022/04/25 15:04:06;;;;;;;4.97;1.80;;;20.00;43.10;;;;;;6126640;29;20191;-69
2022/04/25 15:07:07;;;;;;;5.15;1.85;;;20.00;43.30;;;;;;6137241;28;20655;-68
2022/04/25 15:10:08;;;;;;;3.88;1.73;;;20.00;43.50;;;;;;6165447;28;20524;-69
2022/04/25 15:13:09;;;;;;;4.22;1.63;;;20.00;43.70;;;;;;6171176;28;20093;-69
2022/04/25 15:16:11;;;;;;;4.75;1.60;;;20.00;43.80;;;;;;6126544;29;20444;-69
2022/04/25 15:19:12;;;;;;;4.30;1.80;;;20.00;43.90;;;;;;6125801;29;20024;-68
2022/04/25 15:22:12;;;;;;;8.05;1.80;;;20.00;44.00;;;;;;6141442;28;20386;-70
2022/04/25 15:25:13;;;;;;;3.42;1.52;;;20.00;44.10;;;;;;6153804;28;20036;-69
2022/04/25 15:28:14;;;;;;;3.08;1.70;;;20.00;44.20;;;;;;6150059;28;20475;-69
2022/04/25 15:31:15;;;;;;;5.55;1.52;;;20.00;44.30;;;;;;6167913;28;20462;-68
2022/04/25 15:34:16;;;;;;;1.92;1.27;;;20.00;44.50;;;;;;6173210;28;20037;-69
2022/04/25 15:37:16;;;;;;;3.85;1.38;;;20.00;44.80;;;;;;6162761;28;20035;-69
2022/04/25 15:40:17;;;;;;;4.93;1.30;;;20.10;45.00;;;;;;6148619;28;20037;-68
2022/04/25 15:43:17;;;;;;;5.07;1.50;;;20.10;44.90;;;;;;6147125;28;20023;-69
2022/04/25 15:46:18;;;;;;;3.53;1.33;;;20.10;45.60;;;;;;6147779;28;20366;-69
2022/04/25 15:49:20;;;;;;;2.17;1.30;;;20.10;44.90;;;;;;6148792;28;20111;-69
2022/04/25 15:52:20;;;;;;;2.63;1.42;;;20.10;44.80;;;;;;6148948;28;20046;-69
2022/04/25 15:58:40;;;;;;;2.72;1.52;;;20.10;44.70;;;;;;6148130;28;20023;-69
2022/04/25 16:01:40;;;;;;;2.10;1.30;;;20.10;44.70;;;;;;6148069;28;20069;-69
2022/04/25 16:04:41;;;;;;;3.88;1.02;;;20.10;44.70;;;;;;6148237;28;20027;-69
2022/04/25 16:07:42;;;;;;;2.13;1.40;;;20.10;44.70;;;;;;6147365;28;20034;-69
2022/04/25 16:10:43;;;;;;;3.17;1.30;;;20.10;44.70;;;;;;6146343;29;20059;-69
2022/04/25 16:13:44;;;;;;;2.28;1.38;;;20.10;44.70;;;;;;6147237;28;20043;-69
2022/04/25 16:16:44;;;;;;;5.47;1.30;;;20.10;44.80;;;;;;6147525;28;20434;-69
2022/04/25 16:19:45;;;;;;;8.30;1.50;;;20.10;44.80;;;;;;6146223;28;20086;-69
2022/04/25 16:22:47;;;;;;;7.22;1.65;;;20.10;44.90;;;;;;6145440;28;20054;-69
2022/04/25 16:25:52;;;;;;;3.90;1.75;;;20.10;45.00;;;;;;6145210;28;20029;-69
2022/04/25 16:28:52;;;;;;;6.25;1.75;;;20.20;45.00;;;;;;6144821;28;20114;-69
2022/04/25 16:31:53;;;;;;;7.60;1.35;;;20.20;45.00;;;;;;6145385;28;20027;-69